sensor_id;sensor_type;location;lat;lon;timestamp;pressure;altitude;pressure_sealevel;temperature;humidity
75594;BME280;64176;49.156;7.810;2024-03-22T00:01:09;99864.41;;;8.90;100.00
75594;BME280;64176;49.156;7.810;2024-03-22T00:03:53;99862.44;;;8.79;100.00
75594;BME280;64176;49.156;7.810;2024-03-22T00:06:38;99851.97;;;8.71;100.00
75594;BME280;64176;49.156;7.810;2024-03-22T00:09:27;99848.56;;;8.36;100.00
75594;BME280;64176;49.156;7.810;2024-03-22T00:12:14;99844.69;;;8.53;100.00
75594;BME280;64176;49.156;7.810;2024-03-22T00:14:58;99853.03;;;8.43;100.00
75594;BME280;64176;49.156;7.810;2024-03-22T00:17:47;99848.50;;;8.33;100.00
75594;BME280;64176;49.156;7.810;2024-03-22T00:20:31;99843.06;;;8.57;100.00
75594;BME280;64176;49.156;7.810;2024-03-22T00:23:17;99842.84;;;8.48;100.00
75594;BME280;64176;49.156;7.810;2024-03-22T00:26:04;99836.03;;;8.51;100.00
75594;BME280;64176;49.156;7.810;2024-03-22T00:28:48;99829.31;;;8.56;100.00
75594;BME280;64176;49.156;7.810;2024-03-22T00:31:33;99831.16;;;8.63;100.00
75594;BME280;64176;49.156;7.810;2024-03-22T00:34:22;99836.34;;;8.27;100.00
75594;BME280;64176;49.156;7.810;2024-03-22T00:37:06;99823.69;;;8.02;100.00
75594;BME280;64176;49.156;7.810;2024-03-22T00:39:50;99829.47;;;8.29;100.00
75594;BME280;64176;49.156;7.810;2024-03-22T00:42:34;99826.81;;;8.25;100.00
75594;BME280;64176;49.156;7.810;2024-03-22T00:45:18;99829.22;;;8.19;100.00
75594;BME280;64176;49.156;7.810;2024-03-22T00:48:02;99830.06;;;8.18;100.00
75594;BME280;64176;49.156;7.810;2024-03-22T00:50:46;99817.84;;;8.09;100.00
75594;BME280;64176;49.156;7.810;2024-03-22T00:53:30;99809.78;;;7.94;100.00
75594;BME280;64176;49.156;7.810;2024-03-22T00:56:14;99819.63;;;7.77;100.00
75594;BME280;64176;49.156;7.810;2024-03-22T00:59:02;99795.50;;;7.72;100.00
75594;BME280;64176;49.156;7.810;2024-03-22T01:01:51;99802.97;;;7.97;100.00
75594;BME280;64176;49.156;7.810;2024-03-22T01:04:34;99796.38;;;7.73;100.00
75594;BME280;64176;49.156;7.810;2024-03-22T01:07:21;99799.59;;;7.65;100.00
75594;BME280;64176;49.156;7.810;2024-03-22T01:10:05;99796.94;;;7.61;100.00
75594;BME280;64176;49.156;7.810;2024-03-22T01:12:49;99788.84;;;7.47;100.00
75594;BME280;64176;49.156;7.810;2024-03-22T01:15:36;99792.72;;;7.64;100.00
75594;BME280;64176;49.156;7.810;2024-03-22T01:18:25;99791.50;;;7.52;100.00
75594;BME280;64176;49.156;7.810;2024-03-22T01:21:09;99787.84;;;7.42;100.00
75594;BME280;64176;49.156;7.810;2024-03-22T01:23:53;99790.22;;;7.35;100.00
75594;BME280;64176;49.156;7.810;2024-03-22T01:26:38;99793.34;;;7.56;100.00
75594;BME280;64176;49.156;7.810;2024-03-22T01:29:24;99787.34;;;7.55;100.00
75594;BME280;64176;49.156;7.810;2024-03-22T01:32:08;99782.47;;;7.66;100.00
75594;BME280;64176;49.156;7.810;2024-03-22T01:34:55;99779.19;;;7.39;100.00
75594;BME280;64176;49.156;7.810;2024-03-22T01:37:39;99791.66;;;7.56;100.00
75594;BME280;64176;49.156;7.810;2024-03-22T01:40:23;99780.13;;;7.42;100.00
75594;BME280;64176;49.156;7.810;2024-03-22T01:43:09;99781.19;;;7.49;100.00
75594;BME280;64176;49.156;7.810;2024-03-22T01:45:56;99777.00;;;7.54;100.00
75594;BME280;64176;49.156;7.810;2024-03-22T01:48:40;99775.78;;;7.40;100.00
75594;BME280;64176;49.156;7.810;2024-03-22T01:51:24;99777.78;;;7.51;100.00
75594;BME280;64176;49.156;7.810;2024-03-22T01:54:11;99773.50;;;7.52;100.00
75594;BME280;64176;49.156;7.810;2024-03-22T01:56:58;99774.53;;;7.57;100.00
75594;BME280;64176;49.156;7.810;2024-03-22T01:59:44;99772.00;;;7.58;100.00
75594;BME280;64176;49.156;7.810;2024-03-22T02:02:30;99760.97;;;7.64;100.00
75594;BME280;64176;49.156;7.810;2024-03-22T02:05:17;99758.69;;;7.42;100.00
75594;BME280;64176;49.156;7.810;2024-03-22T02:08:05;99759.31;;;7.33;100.00
75594;BME280;64176;49.156;7.810;2024-03-22T02:10:56;99751.59;;;7.33;100.00
75594;BME280;64176;49.156;7.810;2024-03-22T02:13:43;99755.50;;;7.50;100.00
75594;BME280;64176;49.156;7.810;2024-03-22T02:16:29;99750.75;;;7.01;100.00
75594;BME280;64176;49.156;7.810;2024-03-22T02:19:13;99746.31;;;7.27;100.00
75594;BME280;64176;49.156;7.810;2024-03-22T02:22:00;99745.66;;;7.03;100.00
75594;BME280;64176;49.156;7.810;2024-03-22T02:24:46;99749.38;;;6.82;100.00
75594;BME280;64176;49.156;7.810;2024-03-22T02:27:33;99739.44;;;6.94;100.00
75594;BME280;64176;49.156;7.810;2024-03-22T02:30:19;99742.69;;;6.89;100.00
75594;BME280;64176;49.156;7.810;2024-03-22T02:33:08;99735.97;;;6.92;100.00
75594;BME280;64176;49.156;7.810;2024-03-22T02:35:52;99737.66;;;6.92;100.00
75594;BME280;64176;49.156;7.810;2024-03-22T02:38:36;99743.59;;;6.60;100.00
75594;BME280;64176;49.156;7.810;2024-03-22T02:41:21;99743.13;;;7.04;100.00
75594;BME280;64176;49.156;7.810;2024-03-22T02:44:10;99745.69;;;7.04;100.00
75594;BME280;64176;49.156;7.810;2024-03-22T02:46:57;99736.63;;;7.18;100.00
75594;BME280;64176;49.156;7.810;2024-03-22T02:49:41;99743.09;;;7.03;100.00
75594;BME280;64176;49.156;7.810;2024-03-22T02:52:27;99739.47;;;7.27;100.00
75594;BME280;64176;49.156;7.810;2024-03-22T02:55:14;99724.25;;;7.35;100.00
75594;BME280;64176;49.156;7.810;2024-03-22T02:57:58;99729.66;;;7.46;100.00
75594;BME280;64176;49.156;7.810;2024-03-22T03:00:42;99725.22;;;7.40;100.00
75594;BME280;64176;49.156;7.810;2024-03-22T03:03:26;99722.94;;;7.51;100.00
75594;BME280;64176;49.156;7.810;2024-03-22T03:06:12;99721.13;;;7.47;100.00
75594;BME280;64176;49.156;7.810;2024-03-22T03:09:06;99709.78;;;7.40;100.00
75594;BME280;64176;49.156;7.810;2024-03-22T03:11:52;99720.28;;;7.48;100.00
75594;BME280;64176;49.156;7.810;2024-03-22T03:14:36;99719.59;;;7.55;100.00
75594;BME280;64176;49.156;7.810;2024-03-22T03:17:24;99711.66;;;7.46;100.00
75594;BME280;64176;49.156;7.810;2024-03-22T03:20:09;99713.69;;;7.59;100.00
75594;BME280;64176;49.156;7.810;2024-03-22T03:22:56;99712.41;;;7.42;100.00
75594;BME280;64176;49.156;7.810;2024-03-22T03:25:43;99711.66;;;7.46;100.00
75594;BME280;64176;49.156;7.810;2024-03-22T03:28:29;99717.72;;;7.48;100.00
75594;BME280;64176;49.156;7.810;2024-03-22T03:31:13;99709.78;;;7.40;100.00
75594;BME280;64176;49.156;7.810;2024-03-22T03:33:57;99718.03;;;7.60;100.00
75594;BME280;64176;49.156;7.810;2024-03-22T03:36:41;99720.63;;;7.61;100.00
75594;BME280;64176;49.156;7.810;2024-03-22T03:39:25;99715.31;;;7.55;100.00
75594;BME280;64176;49.156;7.810;2024-03-22T03:42:09;99713.50;;;7.51;100.00
75594;BME280;64176;49.156;7.810;2024-03-22T03:44:53;99711.91;;;7.56;100.00
75594;BME280;64176;49.156;7.810;2024-03-22T03:47:37;99711.03;;;7.56;100.00
75594;BME280;64176;49.156;7.810;2024-03-22T03:50:21;99708.38;;;7.53;100.00
75594;BME280;64176;49.156;7.810;2024-03-22T03:53:05;99702.16;;;7.43;100.00
75594;BME280;64176;49.156;7.810;2024-03-22T03:55:49;99699.72;;;7.48;100.00
75594;BME280;64176;49.156;7.810;2024-03-22T03:58:35;99693.50;;;7.40;100.00
75594;BME280;64176;49.156;7.810;2024-03-22T04:01:19;99697.53;;;7.28;100.00
75594;BME280;64176;49.156;7.810;2024-03-22T04:04:04;99702.06;;;7.39;100.00
75594;BME280;64176;49.156;7.810;2024-03-22T04:06:50;99690.91;;;7.38;100.00
75594;BME280;64176;49.156;7.810;2024-03-22T04:09:37;99687.50;;;7.41;100.00
75594;BME280;64176;49.156;7.810;2024-03-22T04:12:21;99683.94;;;7.34;100.00
75594;BME280;64176;49.156;7.810;2024-03-22T04:15:05;99687.16;;;7.25;100.00
75594;BME280;64176;49.156;7.810;2024-03-22T04:17:56;99683.81;;;7.29;100.00
75594;BME280;64176;49.156;7.810;2024-03-22T04:20:43;99682.59;;;7.48;100.00
75594;BME280;64176;49.156;7.810;2024-03-22T04:23:29;99683.41;;;7.47;100.00
75594;BME280;64176;49.156;7.810;2024-03-22T04:26:14;99680.66;;;7.41;100.00
75594;BME280;64176;49.156;7.810;2024-03-22T04:28:59;99674.38;;;7.28;100.00
75594;BME280;64176;49.156;7.810;2024-03-22T04:31:48;99678.44;;;7.20;100.00
75594;BME280;64176;49.156;7.810;2024-03-22T04:34:32;99675.94;;;7.23;100.00
75594;BME280;64176;49.156;7.810;2024-03-22T04:37:15;99683.25;;;7.08;100.00
75594;BME280;64176;49.156;7.810;2024-03-22T04:40:02;99672.28;;;7.14;100.00
75594;BME280;64176;49.156;7.810;2024-03-22T04:42:46;99679.06;;;7.12;100.00
75594;BME280;64176;49.156;7.810;2024-03-22T04:45:33;99675.88;;;7.20;100.00
75594;BME280;64176;49.156;7.810;2024-03-22T04:48:19;99673.81;;;7.07;100.00
75594;BME280;64176;49.156;7.810;2024-03-22T04:51:06;99675.75;;;7.16;100.00
75594;BME280;64176;49.156;7.810;2024-03-22T04:53:53;99681.19;;;6.93;100.00
75594;BME280;64176;49.156;7.810;2024-03-22T04:56:41;99671.97;;;7.02;100.00
75594;BME280;64176;49.156;7.810;2024-03-22T04:59:25;99674.19;;;6.89;100.00
75594;BME280;64176;49.156;7.810;2024-03-22T05:02:09;99671.72;;;6.92;100.00
75594;BME280;64176;49.156;7.810;2024-03-22T05:04:52;99668.38;;;6.97;100.00
75594;BME280;64176;49.156;7.810;2024-03-22T05:07:39;99677.25;;;6.76;100.00
75594;BME280;64176;49.156;7.810;2024-03-22T05:10:23;99665.78;;;6.64;100.00
75594;BME280;64176;49.156;7.810;2024-03-22T05:13:09;99662.69;;;6.75;100.00
75594;BME280;64176;49.156;7.810;2024-03-22T05:16:00;99671.25;;;6.76;100.00
75594;BME280;64176;49.156;7.810;2024-03-22T05:18:44;99665.09;;;6.69;100.00
75594;BME280;64176;49.156;7.810;2024-03-22T05:21:29;99667.28;;;6.55;100.00
75594;BME280;64176;49.156;7.810;2024-03-22T05:24:15;99667.41;;;6.60;100.00
75594;BME280;64176;49.156;7.810;2024-03-22T05:26:59;99658.06;;;6.62;100.00
75594;BME280;64176;49.156;7.810;2024-03-22T05:29:44;99657.19;;;6.63;100.00
75594;BME280;64176;49.156;7.810;2024-03-22T05:32:33;99659.13;;;6.39;100.00
75594;BME280;64176;49.156;7.810;2024-03-22T05:35:20;99669.69;;;6.49;100.00
75594;BME280;64176;49.156;7.810;2024-03-22T05:38:05;99667.16;;;6.51;100.00
75594;BME280;64176;49.156;7.810;2024-03-22T05:40:48;99662.72;;;6.45;100.00
75594;BME280;64176;49.156;7.810;2024-03-22T05:43:33;99661.28;;;6.25;100.00
75594;BME280;64176;49.156;7.810;2024-03-22T05:46:16;99674.06;;;6.24;100.00
75594;BME280;64176;49.156;7.810;2024-03-22T05:49:05;99674.47;;;6.09;100.00
75594;BME280;64176;49.156;7.810;2024-03-22T05:51:49;99681.97;;;6.31;100.00
75594;BME280;64176;49.156;7.810;2024-03-22T05:54:36;99678.16;;;6.47;100.00
75594;BME280;64176;49.156;7.810;2024-03-22T05:57:21;99676.16;;;6.37;100.00
75594;BME280;64176;49.156;7.810;2024-03-22T06:00:05;99684.91;;;6.43;100.00
75594;BME280;64176;49.156;7.810;2024-03-22T06:02:53;99672.97;;;6.45;100.00
75594;BME280;64176;49.156;7.810;2024-03-22T06:05:40;99664.16;;;6.36;100.00
75594;BME280;64176;49.156;7.810;2024-03-22T06:08:25;99656.75;;;6.16;100.00
75594;BME280;64176;49.156;7.810;2024-03-22T06:11:10;99660.97;;;6.44;100.00
75594;BME280;64176;49.156;7.810;2024-03-22T06:13:54;99652.00;;;6.60;100.00
75594;BME280;64176;49.156;7.810;2024-03-22T06:16:38;99648.53;;;6.58;100.00
75594;BME280;64176;49.156;7.810;2024-03-22T06:19:24;99642.06;;;6.72;100.00
75594;BME280;64176;49.156;7.810;2024-03-22T06:22:10;99642.50;;;6.89;100.00
75594;BME280;64176;49.156;7.810;2024-03-22T06:24:56;99636.91;;;7.04;100.00
75594;BME280;64176;49.156;7.810;2024-03-22T06:27:42;99633.06;;;6.88;100.00
75594;BME280;64176;49.156;7.810;2024-03-22T06:30:29;99636.94;;;7.05;100.00
75594;BME280;64176;49.156;7.810;2024-03-22T06:33:18;99630.41;;;7.18;100.00
75594;BME280;64176;49.156;7.810;2024-03-22T06:36:03;99632.38;;;7.29;100.00
75594;BME280;64176;49.156;7.810;2024-03-22T06:38:47;99635.81;;;7.28;100.00
75594;BME280;64176;49.156;7.810;2024-03-22T06:41:34;99633.81;;;7.53;100.00
75594;BME280;64176;49.156;7.810;2024-03-22T06:44:22;99628.56;;;7.86;100.00
75594;BME280;64176;49.156;7.810;2024-03-22T06:47:08;99635.66;;;7.94;100.00
75594;BME280;64176;49.156;7.810;2024-03-22T06:49:52;99625.09;;;8.23;100.00
75594;BME280;64176;49.156;7.810;2024-03-22T06:52:39;99615.97;;;8.37;100.00
75594;BME280;64176;49.156;7.810;2024-03-22T06:55:23;99615.13;;;8.38;100.00
75594;BME280;64176;49.156;7.810;2024-03-22T06:58:07;99607.84;;;8.62;100.00
75594;BME280;64176;49.156;7.810;2024-03-22T07:00:51;99599.47;;;8.71;100.00
75594;BME280;64176;49.156;7.810;2024-03-22T07:03:37;99595.16;;;8.73;100.00
75594;BME280;64176;49.156;7.810;2024-03-22T07:06:21;99601.66;;;8.99;100.00
75594;BME280;64176;49.156;7.810;2024-03-22T07:09:05;99601.38;;;8.84;100.00
75594;BME280;64176;49.156;7.810;2024-03-22T07:11:50;99594.72;;;9.48;100.00
75594;BME280;64176;49.156;7.810;2024-03-22T07:14:34;99587.78;;;9.44;100.00
75594;BME280;64176;49.156;7.810;2024-03-22T07:17:18;99582.59;;;9.42;100.00
75594;BME280;64176;49.156;7.810;2024-03-22T07:20:08;99578.56;;;9.60;100.00
75594;BME280;64176;49.156;7.810;2024-03-22T07:22:55;99580.41;;;9.68;100.00
75594;BME280;64176;49.156;7.810;2024-03-22T07:25:45;99576.91;;;9.65;100.00
75594;BME280;64176;49.156;7.810;2024-03-22T07:28:35;99572.72;;;9.73;100.00
75594;BME280;64176;49.156;7.810;2024-03-22T07:31:21;99568.66;;;9.90;100.00
75594;BME280;64176;49.156;7.810;2024-03-22T07:34:07;99574.59;;;9.84;100.00
75594;BME280;64176;49.156;7.810;2024-03-22T07:36:51;99571.19;;;9.87;100.00
75594;BME280;64176;49.156;7.810;2024-03-22T07:39:37;99562.66;;;9.94;100.00
75594;BME280;64176;49.156;7.810;2024-03-22T07:42:27;99552.44;;;10.00;100.00
75594;BME280;64176;49.156;7.810;2024-03-22T07:45:11;99555.91;;;10.02;100.00
75594;BME280;64176;49.156;7.810;2024-03-22T07:47:55;99555.13;;;10.09;100.00
75594;BME280;64176;49.156;7.810;2024-03-22T07:50:39;99557.75;;;10.12;100.00
75594;BME280;64176;49.156;7.810;2024-03-22T07:53:25;99552.63;;;10.15;100.00
75594;BME280;64176;49.156;7.810;2024-03-22T07:56:12;99547.56;;;10.23;100.00
75594;BME280;64176;49.156;7.810;2024-03-22T07:58:59;99552.78;;;10.28;100.00
75594;BME280;64176;49.156;7.810;2024-03-22T08:01:43;99556.34;;;10.39;100.00
75594;BME280;64176;49.156;7.810;2024-03-22T08:04:27;99542.56;;;10.37;100.00
75594;BME280;64176;49.156;7.810;2024-03-22T08:07:11;99553.97;;;10.55;100.00
75594;BME280;64176;49.156;7.810;2024-03-22T08:09:55;99541.84;;;10.51;100.00
75594;BME280;64176;49.156;7.810;2024-03-22T08:12:44;99541.09;;;10.60;100.00
75594;BME280;64176;49.156;7.810;2024-03-22T08:15:31;99549.00;;;10.78;100.00
75594;BME280;64176;49.156;7.810;2024-03-22T08:18:15;99542.16;;;10.82;100.00
75594;BME280;64176;49.156;7.810;2024-03-22T08:21:01;99532.72;;;10.87;100.00
75594;BME280;64176;49.156;7.810;2024-03-22T08:23:46;99541.38;;;10.93;100.00
75594;BME280;64176;49.156;7.810;2024-03-22T08:26:30;99538.00;;;11.01;100.00
75594;BME280;64176;49.156;7.810;2024-03-22T08:29:14;99543.19;;;11.02;100.00
75594;BME280;64176;49.156;7.810;2024-03-22T08:32:01;99539.84;;;11.15;100.00
75594;BME280;64176;49.156;7.810;2024-03-22T08:34:48;99542.50;;;11.23;100.00
75594;BME280;64176;49.156;7.810;2024-03-22T08:37:33;99535.63;;;11.25;100.00
75594;BME280;64176;49.156;7.810;2024-03-22T08:40:17;99533.84;;;11.21;100.00
75594;BME280;64176;49.156;7.810;2024-03-22T08:43:01;99533.88;;;11.27;100.00
75594;BME280;64176;49.156;7.810;2024-03-22T08:45:45;99531.31;;;11.30;100.00
75594;BME280;64176;49.156;7.810;2024-03-22T08:48:29;99537.34;;;11.29;100.00
75594;BME280;64176;49.156;7.810;2024-03-22T08:51:18;99534.81;;;11.40;100.00
75594;BME280;64176;49.156;7.810;2024-03-22T08:54:02;99528.84;;;11.45;100.00
75594;BME280;64176;49.156;7.810;2024-03-22T08:56:47;99527.13;;;11.50;100.00
75594;BME280;64176;49.156;7.810;2024-03-22T08:59:31;99518.53;;;11.54;100.00
75594;BME280;64176;49.156;7.810;2024-03-22T09:02:15;99517.69;;;11.55;100.00
75594;BME280;64176;49.156;7.810;2024-03-22T09:05:03;99513.38;;;11.54;100.00
75594;BME280;64176;49.156;7.810;2024-03-22T09:07:47;99513.44;;;11.73;100.00
75594;BME280;64176;49.156;7.810;2024-03-22T09:10:37;99511.81;;;11.81;100.00
75594;BME280;64176;49.156;7.810;2024-03-22T09:13:21;99509.22;;;11.82;100.00
75594;BME280;64176;49.156;7.810;2024-03-22T09:16:05;99515.31;;;11.98;100.00
75594;BME280;64176;49.156;7.810;2024-03-22T09:18:48;99499.78;;;11.92;100.00
75594;BME280;64176;49.156;7.810;2024-03-22T09:21:35;99509.31;;;12.07;100.00
75594;BME280;64176;49.156;7.810;2024-03-22T09:24:19;99499.84;;;12.21;100.00
75594;BME280;64176;49.156;7.810;2024-03-22T09:27:03;99498.16;;;12.23;100.00
75594;BME280;64176;49.156;7.810;2024-03-22T09:29:52;99497.31;;;12.40;100.00
75594;BME280;64176;49.156;7.810;2024-03-22T09:32:39;99484.38;;;12.45;100.00
75594;BME280;64176;49.156;7.810;2024-03-22T09:35:26;99491.28;;;12.54;100.00
75594;BME280;64176;49.156;7.810;2024-03-22T09:38:11;99480.06;;;12.61;100.00
75594;BME280;64176;49.156;7.810;2024-03-22T09:40:55;99480.09;;;12.70;100.00
75594;BME280;64176;49.156;7.810;2024-03-22T09:43:43;99472.31;;;12.70;100.00
75594;BME280;64176;49.156;7.810;2024-03-22T09:46:30;99465.38;;;12.87;100.00
75594;BME280;64176;49.156;7.810;2024-03-22T09:49:16;99456.72;;;12.97;100.00
75594;BME280;64176;49.156;7.810;2024-03-22T09:52:05;99467.94;;;13.08;100.00
75594;BME280;64176;49.156;7.810;2024-03-22T09:54:53;99460.19;;;13.21;100.00
75594;BME280;64176;49.156;7.810;2024-03-22T09:57:39;99460.16;;;13.36;100.00
75594;BME280;64176;49.156;7.810;2024-03-22T10:00:24;99444.53;;;13.42;100.00
75594;BME280;64176;49.156;7.810;2024-03-22T10:03:14;99441.09;;;13.46;100.00
75594;BME280;64176;49.156;7.810;2024-03-22T10:05:59;99425.47;;;13.57;100.00
75594;BME280;64176;49.156;7.810;2024-03-22T10:08:46;99434.03;;;13.74;100.00
75594;BME280;64176;49.156;7.810;2024-03-22T10:11:32;99429.72;;;13.73;100.00
75594;BME280;64176;49.156;7.810;2024-03-22T10:14:20;99415.84;;;13.71;98.20
75594;BME280;64176;49.156;7.810;2024-03-22T10:17:04;99413.28;;;13.69;99.86
75594;BME280;64176;49.156;7.810;2024-03-22T10:19:51;99414.13;;;13.71;98.76
75594;BME280;64176;49.156;7.810;2024-03-22T10:22:35;99396.84;;;13.67;95.62
75594;BME280;64176;49.156;7.810;2024-03-22T10:25:19;99395.91;;;13.80;94.49
75594;BME280;64176;49.156;7.810;2024-03-22T10:28:04;99401.94;;;13.89;93.68
75594;BME280;64176;49.156;7.810;2024-03-22T10:30:49;99399.34;;;13.89;93.92
75594;BME280;64176;49.156;7.810;2024-03-22T10:33:36;99397.59;;;13.88;92.53
75594;BME280;64176;49.156;7.810;2024-03-22T10:36:20;99383.69;;;14.01;89.58
75594;BME280;64176;49.156;7.810;2024-03-22T10:39:08;99384.50;;;14.04;90.85
75594;BME280;64176;49.156;7.810;2024-03-22T10:41:54;99384.47;;;14.12;88.42
75594;BME280;64176;49.156;7.810;2024-03-22T10:44:41;99383.47;;;14.25;88.39
75594;BME280;64176;49.156;7.810;2024-03-22T10:47:25;99379.06;;;14.41;87.31
75594;BME280;64176;49.156;7.810;2024-03-22T10:50:12;99366.06;;;14.44;87.88
75594;BME280;64176;49.156;7.810;2024-03-22T10:53:02;99359.13;;;14.41;85.30
75594;BME280;64176;49.156;7.810;2024-03-22T10:55:50;99344.22;;;14.60;84.73
75594;BME280;64176;49.156;7.810;2024-03-22T10:58:39;99348.44;;;14.72;83.43
75594;BME280;64176;49.156;7.810;2024-03-22T11:01:27;99344.09;;;14.74;83.89
75594;BME280;64176;49.156;7.810;2024-03-22T11:04:20;99331.84;;;14.85;83.83
75594;BME280;64176;49.156;7.810;2024-03-22T11:07:22;99326.41;;;15.05;83.14
75594;BME280;64176;49.156;7.810;2024-03-22T11:10:12;99316.94;;;14.99;82.92
75594;BME280;64176;49.156;7.810;2024-03-22T11:13:01;99319.72;;;14.82;81.35
75594;BME280;64176;49.156;7.810;2024-03-22T11:15:49;99317.72;;;15.04;80.95
75594;BME280;64176;49.156;7.810;2024-03-22T11:18:34;99314.25;;;15.07;80.64
75594;BME280;64176;49.156;7.810;2024-03-22T11:21:18;99303.66;;;15.20;80.98
75594;BME280;64176;49.156;7.810;2024-03-22T11:24:02;99298.31;;;15.31;79.75
75594;BME280;64176;49.156;7.810;2024-03-22T11:26:46;99299.16;;;15.35;78.28
75594;BME280;64176;49.156;7.810;2024-03-22T11:29:33;99293.91;;;15.36;77.32
75594;BME280;64176;49.156;7.810;2024-03-22T11:32:17;99280.78;;;15.45;77.33
75594;BME280;64176;49.156;7.810;2024-03-22T11:35:04;99279.13;;;15.38;74.69
75594;BME280;64176;49.156;7.810;2024-03-22T11:37:50;99272.72;;;15.63;74.41
75594;BME280;64176;49.156;7.810;2024-03-22T11:40:35;99270.84;;;15.73;73.07
75594;BME280;64176;49.156;7.810;2024-03-22T11:43:23;99255.22;;;15.73;70.37
75594;BME280;64176;49.156;7.810;2024-03-22T11:46:07;99255.59;;;16.02;68.02
75594;BME280;64176;49.156;7.810;2024-03-22T11:48:55;99247.59;;;16.13;67.60
75594;BME280;64176;49.156;7.810;2024-03-22T11:51:41;99237.34;;;16.02;65.31
75594;BME280;64176;49.156;7.810;2024-03-22T11:54:25;99243.66;;;16.38;66.31
75594;BME280;64176;49.156;7.810;2024-03-22T11:57:09;99225.13;;;16.54;63.90
75594;BME280;64176;49.156;7.810;2024-03-22T11:59:59;99231.25;;;16.53;64.75
75594;BME280;64176;49.156;7.810;2024-03-22T12:02:45;99227.59;;;16.61;63.05
75594;BME280;64176;49.156;7.810;2024-03-22T12:05:34;99223.75;;;16.81;61.55
75594;BME280;64176;49.156;7.810;2024-03-22T12:08:18;99225.72;;;16.69;60.66
75594;BME280;64176;49.156;7.810;2024-03-22T12:11:03;99215.94;;;16.79;59.01
75594;BME280;64176;49.156;7.810;2024-03-22T12:13:49;99206.91;;;16.97;57.86
75594;BME280;64176;49.156;7.810;2024-03-22T12:16:33;99201.03;;;17.26;57.21
75594;BME280;64176;49.156;7.810;2024-03-22T12:19:20;99196.03;;;17.15;58.18
75594;BME280;64176;49.156;7.810;2024-03-22T12:22:04;99197.19;;;17.42;58.90
75594;BME280;64176;49.156;7.810;2024-03-22T12:24:52;99194.13;;;16.83;56.75
75594;BME280;64176;49.156;7.810;2024-03-22T12:27:38;99186.41;;;16.79;56.43
75594;BME280;64176;49.156;7.810;2024-03-22T12:30:22;99189.72;;;16.85;56.75
75594;BME280;64176;49.156;7.810;2024-03-22T12:33:09;99181.03;;;17.25;56.62
75594;BME280;64176;49.156;7.810;2024-03-22T12:35:56;99162.59;;;17.31;55.58
75594;BME280;64176;49.156;7.810;2024-03-22T12:38:40;99172.50;;;17.55;54.19
75594;BME280;64176;49.156;7.810;2024-03-22T12:41:25;99159.63;;;17.46;53.40
75594;BME280;64176;49.156;7.810;2024-03-22T12:44:17;99168.06;;;17.57;53.78
75594;BME280;64176;49.156;7.810;2024-03-22T12:47:03;99158.41;;;17.61;54.42
75594;BME280;64176;49.156;7.810;2024-03-22T12:49:53;99153.06;;;17.30;54.20
75594;BME280;64176;49.156;7.810;2024-03-22T12:52:42;99145.88;;;17.38;54.84
75594;BME280;64176;49.156;7.810;2024-03-22T12:55:33;99143.78;;;17.54;53.83
75594;BME280;64176;49.156;7.810;2024-03-22T12:58:19;99146.81;;;17.72;53.22
75594;BME280;64176;49.156;7.810;2024-03-22T13:01:10;99139.56;;;17.83;53.88
75594;BME280;64176;49.156;7.810;2024-03-22T13:04:01;99126.78;;;17.71;55.63
75594;BME280;64176;49.156;7.810;2024-03-22T13:06:50;99120.03;;;17.64;54.11
75594;BME280;64176;49.156;7.810;2024-03-22T13:09:35;99126.13;;;17.62;53.73
75594;BME280;64176;49.156;7.810;2024-03-22T13:12:19;99116.91;;;17.47;53.51
75594;BME280;64176;49.156;7.810;2024-03-22T13:15:06;99116.53;;;17.64;53.87
75594;BME280;64176;49.156;7.810;2024-03-22T13:17:52;99114.88;;;17.60;53.35
75594;BME280;64176;49.156;7.810;2024-03-22T13:20:40;99110.31;;;17.68;54.17
75594;BME280;64176;49.156;7.810;2024-03-22T13:23:24;99100.84;;;17.65;54.35
75594;BME280;64176;49.156;7.810;2024-03-22T13:26:08;99106.25;;;17.56;53.71
75594;BME280;64176;49.156;7.810;2024-03-22T13:28:55;99099.44;;;17.49;53.10
75594;BME280;64176;49.156;7.810;2024-03-22T13:31:39;99097.91;;;17.42;51.99
75594;BME280;64176;49.156;7.810;2024-03-22T13:34:25;99086.53;;;17.44;51.70
75594;BME280;64176;49.156;7.810;2024-03-22T13:37:11;99083.91;;;17.44;51.16
75594;BME280;64176;49.156;7.810;2024-03-22T13:39:57;99084.13;;;17.71;52.21
75594;BME280;64176;49.156;7.810;2024-03-22T13:42:41;99069.47;;;17.65;51.98
75594;BME280;64176;49.156;7.810;2024-03-22T13:45:25;99074.97;;;17.53;52.59
75594;BME280;64176;49.156;7.810;2024-03-22T13:48:12;99071.44;;;17.56;51.66
75594;BME280;64176;49.156;7.810;2024-03-22T13:50:57;99057.41;;;17.58;51.36
75594;BME280;64176;49.156;7.810;2024-03-22T13:53:42;99058.69;;;17.43;51.13
75594;BME280;64176;49.156;7.810;2024-03-22T13:56:26;99056.69;;;17.53;51.14
75594;BME280;64176;49.156;7.810;2024-03-22T13:59:12;99052.31;;;17.54;52.00
75594;BME280;64176;49.156;7.810;2024-03-22T14:01:58;99051.75;;;17.41;52.10
75594;BME280;64176;49.156;7.810;2024-03-22T14:04:42;99036.16;;;17.38;51.75
75594;BME280;64176;49.156;7.810;2024-03-22T14:07:26;99029.22;;;17.37;52.98
75594;BME280;64176;49.156;7.810;2024-03-22T14:10:11;99024.91;;;17.34;51.30
75594;BME280;64176;49.156;7.810;2024-03-22T14:13:00;99025.59;;;17.42;51.86
75594;BME280;64176;49.156;7.810;2024-03-22T14:15:46;99013.47;;;17.40;51.51
75594;BME280;64176;49.156;7.810;2024-03-22T14:18:33;99008.88;;;17.50;51.93
75594;BME280;64176;49.156;7.810;2024-03-22T14:21:22;99007.91;;;17.54;50.77
75594;BME280;64176;49.156;7.810;2024-03-22T14:24:05;99005.69;;;17.71;51.19
75594;BME280;64176;49.156;7.810;2024-03-22T14:26:49;98993.06;;;17.54;49.15
75594;BME280;64176;49.156;7.810;2024-03-22T14:29:36;98985.00;;;17.63;49.65
75594;BME280;64176;49.156;7.810;2024-03-22T14:32:20;98980.13;;;17.50;49.84
75594;BME280;64176;49.156;7.810;2024-03-22T14:35:04;98980.28;;;17.43;49.85